Time;durP1;ratioP1;P1;durP2;ratioP2;P2;SDS_P1;SDS_P2;PMS_P1;PMS_P2;Temp;Humidity;BMP_temperature;BMP_pressure;BME280_temperature;BME280_humidity;BME280_pressure;Samples;Min_cycle;Max_cycle;Signal;HPM_P1;HPM_P2
2023/05/19 00:00:35;;;;;;;7.30;5.70;;;8.00;99.90;;;;;;4983392;28;20501;-68
2023/05/19 00:03:04;;;;;;;6.87;5.50;;;7.90;99.90;;;;;;4982121;28;20489;-68
2023/05/19 00:05:34;;;;;;;6.97;5.93;;;7.90;99.90;;;;;;4982260;28;20477;-68
2023/05/19 00:08:03;;;;;;;9.50;7.47;;;7.90;99.90;;;;;;4983059;28;20570;-68
2023/05/19 00:10:33;;;;;;;6.47;5.83;;;7.90;99.90;;;;;;4982548;28;20476;-68
2023/05/19 00:13:02;;;;;;;8.73;6.33;;;7.80;99.90;;;;;;4982829;28;20501;-68
2023/05/19 00:15:31;;;;;;;7.60;6.00;;;7.80;99.90;;;;;;4981815;28;20476;-68
2023/05/19 00:18:04;;;;;;;7.40;6.10;;;7.80;99.90;;;;;;4982768;28;20474;-67
2023/05/19 00:20:33;;;;;;;5.90;5.40;;;7.80;99.90;;;;;;4982218;28;20516;-68
2023/05/19 00:23:01;;;;;;;9.27;5.37;;;7.80;99.90;;;;;;4981694;28;20481;-73
2023/05/19 00:25:29;;;;;;;7.60;6.27;;;7.70;99.90;;;;;;4981434;28;20517;-68
2023/05/19 00:28:01;;;;;;;8.90;6.93;;;7.70;99.90;;;;;;4982691;28;20529;-68
2023/05/19 00:30:29;;;;;;;8.13;5.93;;;7.70;99.90;;;;;;4982478;28;20509;-67
2023/05/19 00:32:58;;;;;;;6.43;5.83;;;7.70;99.90;;;;;;4980885;28;20588;-67
2023/05/19 00:35:26;;;;;;;6.60;6.00;;;7.70;99.90;;;;;;4982774;28;21011;-67
2023/05/19 00:37:54;;;;;;;6.73;6.13;;;7.60;99.90;;;;;;4983237;28;20478;-67
2023/05/19 00:40:24;;;;;;;6.57;5.60;;;7.60;99.90;;;;;;4981859;28;20557;-69
2023/05/19 00:42:55;;;;;;;7.77;5.70;;;7.60;99.90;;;;;;4980020;28;20483;-69
2023/05/19 00:45:25;;;;;;;6.33;5.57;;;7.60;99.90;;;;;;4982433;28;20473;-68
2023/05/19 00:47:53;;;;;;;7.87;5.90;;;7.60;99.90;;;;;;4981783;28;20596;-68
2023/05/19 00:50:22;;;;;;;6.07;5.47;;;7.60;99.90;;;;;;4980364;28;20474;-67
2023/05/19 00:52:51;;;;;;;6.30;5.63;;;7.50;99.90;;;;;;4981544;28;20545;-69
2023/05/19 00:55:21;;;;;;;6.77;5.77;;;7.50;99.90;;;;;;4982053;28;20568;-67
2023/05/19 00:57:50;;;;;;;7.63;5.87;;;7.50;99.90;;;;;;4982036;28;20556;-67
2023/05/19 01:00:18;;;;;;;6.23;5.73;;;7.50;99.90;;;;;;4981323;28;20476;-67
2023/05/19 01:02:49;;;;;;;7.73;5.90;;;7.50;99.90;;;;;;4981021;28;20489;-69
2023/05/19 01:05:17;;;;;;;7.40;5.77;;;7.50;99.90;;;;;;4981920;28;20988;-69
2023/05/19 01:07:52;;;;;;;6.33;5.73;;;7.50;99.90;;;;;;4981608;28;20489;-69
2023/05/19 01:10:20;;;;;;;8.20;6.27;;;7.50;99.90;;;;;;4981166;28;20497;-69
2023/05/19 01:12:48;;;;;;;8.93;6.00;;;7.40;99.90;;;;;;4981412;28;20485;-68
2023/05/19 01:15:17;;;;;;;6.30;5.30;;;7.40;99.90;;;;;;4981705;28;20464;-69
2023/05/19 01:17:53;;;;;;;5.97;5.40;;;7.40;99.90;;;;;;4981920;28;20493;-69
2023/05/19 01:20:29;;;;;;;5.90;5.03;;;7.40;99.90;;;;;;4981506;28;20484;-68
2023/05/19 01:23:23;;;;;;;9.50;5.60;;;7.40;99.90;;;;;;4980106;28;20493;-69
2023/05/19 01:26:35;;;;;;;6.90;5.37;;;7.40;99.90;;;;;;4981473;28;20560;-69
2023/05/19 01:29:31;;;;;;;7.03;5.80;;;7.40;99.90;;;;;;4981920;28;20469;-69
2023/05/19 01:32:03;;;;;;;8.03;5.40;;;7.40;99.90;;;;;;4980669;28;20505;-69
2023/05/19 01:34:32;;;;;;;8.67;5.50;;;7.30;99.90;;;;;;4980773;28;20561;-68
2023/05/19 01:37:01;;;;;;;6.47;5.03;;;7.30;99.90;;;;;;4985166;28;20501;-69
2023/05/19 01:39:30;;;;;;;7.97;5.90;;;7.20;99.90;;;;;;4985033;28;20470;-69
2023/05/19 01:41:58;;;;;;;7.20;5.70;;;7.20;99.90;;;;;;4985802;28;20551;-69
2023/05/19 01:44:26;;;;;;;7.03;6.10;;;7.20;99.90;;;;;;4984898;28;20535;-68
2023/05/19 01:46:55;;;;;;;8.57;6.00;;;7.20;99.90;;;;;;4985948;28;20474;-69
2023/05/19 01:49:24;;;;;;;7.80;5.77;;;7.10;99.90;;;;;;4984542;28;20464;-69
2023/05/19 01:51:52;;;;;;;9.33;6.13;;;7.10;99.90;;;;;;4985761;28;20476;-68
2023/05/19 01:54:20;;;;;;;10.93;6.93;;;7.10;99.90;;;;;;4984873;28;21001;-69
2023/05/19 01:56:57;;;;;;;5.90;5.30;;;7.10;99.90;;;;;;4984290;28;21184;-68
2023/05/19 01:59:40;;;;;;;7.97;5.83;;;7.10;99.90;;;;;;4985865;28;20958;-69
2023/05/19 02:02:29;;;;;;;7.40;6.00;;;7.10;99.90;;;;;;4984162;28;20576;-69
2023/05/19 02:05:06;;;;;;;8.57;6.53;;;7.00;99.90;;;;;;4985006;28;20564;-69
2023/05/19 02:07:42;;;;;;;9.30;6.00;;;7.00;99.90;;;;;;4985057;28;20503;-68
2023/05/19 02:10:14;;;;;;;8.93;6.63;;;7.00;99.90;;;;;;4985491;28;20475;-69
2023/05/19 02:12:45;;;;;;;9.30;6.87;;;7.00;99.90;;;;;;4983377;28;20485;-69
2023/05/19 02:15:16;;;;;;;7.17;6.47;;;7.00;99.90;;;;;;4984634;28;21016;-68
2023/05/19 02:17:49;;;;;;;7.90;6.00;;;7.00;99.90;;;;;;4984241;28;20982;-68
2023/05/19 02:20:18;;;;;;;7.30;6.00;;;7.00;99.90;;;;;;4984793;28;20504;-69
2023/05/19 02:22:46;;;;;;;8.90;6.30;;;6.90;99.90;;;;;;4983344;28;20568;-69
2023/05/19 02:25:14;;;;;;;6.67;5.97;;;6.90;99.90;;;;;;4984878;28;20564;-68
2023/05/19 02:27:42;;;;;;;8.37;6.43;;;6.90;99.90;;;;;;4984705;28;20578;-69
2023/05/19 02:30:11;;;;;;;7.47;5.90;;;6.90;99.90;;;;;;4983860;28;20477;-69
2023/05/19 02:32:39;;;;;;;7.60;6.90;;;6.90;99.90;;;;;;4982980;28;20546;-69
2023/05/19 02:35:08;;;;;;;7.73;6.50;;;6.90;99.90;;;;;;4985217;28;20492;-68
2023/05/19 02:37:37;;;;;;;10.47;6.40;;;6.90;99.90;;;;;;4985013;28;20556;-69
2023/05/19 02:40:06;;;;;;;6.60;6.00;;;6.90;99.90;;;;;;4984489;28;20560;-69
2023/05/19 02:42:34;;;;;;;9.87;6.90;;;6.90;99.90;;;;;;4983785;28;20860;-69
2023/05/19 02:45:03;;;;;;;8.13;6.00;;;6.90;99.90;;;;;;4984215;28;20478;-69
2023/05/19 02:47:31;;;;;;;7.27;6.30;;;6.90;99.90;;;;;;4979104;28;20520;-68
2023/05/19 02:50:02;;;;;;;7.10;6.40;;;6.90;99.90;;;;;;4983743;28;20477;-69
2023/05/19 02:52:30;;;;;;;9.17;7.60;;;6.90;99.90;;;;;;4984007;28;20509;-68
2023/05/19 02:54:59;;;;;;;7.53;6.57;;;6.90;99.90;;;;;;4984584;28;20473;-68
2023/05/19 02:57:30;;;;;;;8.43;6.03;;;6.90;99.90;;;;;;4981992;28;20504;-68
2023/05/19 02:59:58;;;;;;;9.73;6.83;;;6.90;99.90;;;;;;4984348;28;20479;-69
2023/05/19 03:02:26;;;;;;;7.03;6.30;;;6.90;99.90;;;;;;4982444;28;20528;-68
2023/05/19 03:04:54;;;;;;;8.67;6.27;;;6.90;99.90;;;;;;4984120;28;20536;-68
2023/05/19 03:07:23;;;;;;;6.27;5.67;;;7.00;99.90;;;;;;4982884;28;20878;-68
2023/05/19 03:09:52;;;;;;;6.47;5.87;;;7.00;99.90;;;;;;4984209;28;20464;-69
2023/05/19 03:12:21;;;;;;;8.33;6.40;;;7.00;99.90;;;;;;4983774;28;20496;-68
2023/05/19 03:14:49;;;;;;;7.43;6.60;;;7.00;99.90;;;;;;4983266;28;20473;-68
2023/05/19 03:17:17;;;;;;;9.47;7.00;;;7.00;99.90;;;;;;4984583;28;20504;-68
2023/05/19 03:19:46;;;;;;;6.97;6.20;;;7.00;99.90;;;;;;4983113;28;20477;-68
2023/05/19 03:22:14;;;;;;;7.27;6.37;;;7.00;99.90;;;;;;4982681;28;20540;-68
2023/05/19 03:24:42;;;;;;;7.20;6.50;;;7.00;99.90;;;;;;4983588;28;20474;-68
2023/05/19 03:27:12;;;;;;;7.30;6.60;;;7.00;99.90;;;;;;4982022;28;20474;-68
2023/05/19 03:29:42;;;;;;;7.10;5.70;;;7.00;99.90;;;;;;4982606;28;20493;-68
2023/05/19 03:32:10;;;;;;;8.57;6.60;;;7.00;99.90;;;;;;4983197;28;20503;-68
2023/05/19 03:34:38;;;;;;;7.93;6.77;;;7.00;99.90;;;;;;4983224;28;20474;-70
2023/05/19 03:37:06;;;;;;;10.30;7.67;;;7.00;99.90;;;;;;4983183;28;20468;-68
2023/05/19 03:39:34;;;;;;;7.57;6.77;;;7.00;99.90;;;;;;4983296;28;20478;-68
2023/05/19 03:42:02;;;;;;;10.17;7.17;;;7.00;99.90;;;;;;4983513;28;20544;-68
2023/05/19 03:44:30;;;;;;;8.73;6.73;;;7.00;99.90;;;;;;4982126;28;20871;-68
2023/05/19 03:47:00;;;;;;;7.43;6.43;;;7.00;99.90;;;;;;4983346;28;20537;-68
2023/05/19 03:49:28;;;;;;;8.60;7.20;;;7.00;99.90;;;;;;4983984;28;20617;-68
2023/05/19 03:51:56;;;;;;;8.77;6.30;;;7.10;99.90;;;;;;4983282;28;20564;-68
2023/05/19 03:54:25;;;;;;;8.77;6.90;;;7.10;99.90;;;;;;4981993;28;20569;-68
2023/05/19 03:56:53;;;;;;;9.40;6.80;;;7.10;99.90;;;;;;4982533;28;20584;-68
2023/05/19 03:59:22;;;;;;;8.30;6.67;;;7.10;99.90;;;;;;4981587;28;20788;-68
2023/05/19 04:01:51;;;;;;;7.80;7.10;;;7.10;99.90;;;;;;4981812;28;20531;-68
2023/05/19 04:04:21;;;;;;;8.20;7.40;;;7.10;99.90;;;;;;4980342;28;20534;-68
2023/05/19 04:06:49;;;;;;;7.47;6.77;;;7.20;99.90;;;;;;4981882;28;20986;-68
2023/05/19 04:09:18;;;;;;;9.17;7.40;;;7.20;99.90;;;;;;4981652;28;20577;-68
2023/05/19 04:11:46;;;;;;;10.23;7.73;;;7.20;99.90;;;;;;4981516;28;20473;-68
2023/05/19 04:14:14;;;;;;;6.93;6.33;;;7.20;99.90;;;;;;4981579;28;20507;-68
2023/05/19 04:16:42;;;;;;;7.43;6.73;;;7.20;99.90;;;;;;4981926;28;20470;-68
2023/05/19 04:19:10;;;;;;;7.60;6.80;;;7.30;99.90;;;;;;4982437;28;20544;-67
2023/05/19 04:21:40;;;;;;;7.77;6.80;;;7.30;99.90;;;;;;4981705;28;21026;-67
2023/05/19 04:24:08;;;;;;;8.17;6.93;;;7.30;99.90;;;;;;4981636;28;20548;-67
2023/05/19 04:26:37;;;;;;;8.20;6.30;;;7.30;99.90;;;;;;4982865;28;20485;-67
2023/05/19 04:29:05;;;;;;;7.80;7.07;;;7.40;99.90;;;;;;4982792;28;20592;-67
2023/05/19 04:31:34;;;;;;;8.00;7.17;;;7.40;99.90;;;;;;4982779;28;21063;-67
2023/05/19 04:34:02;;;;;;;10.00;6.53;;;7.50;99.90;;;;;;4980840;28;20485;-67
2023/05/19 04:36:32;;;;;;;9.40;7.07;;;7.50;99.90;;;;;;4982527;28;20710;-67
2023/05/19 04:39:07;;;;;;;9.00;6.97;;;7.50;99.90;;;;;;4983028;28;20473;-68
2023/05/19 04:41:35;;;;;;;10.10;6.90;;;7.60;99.90;;;;;;4982047;28;20473;-67
2023/05/19 04:44:03;;;;;;;8.07;6.70;;;7.60;99.90;;;;;;4982092;28;20576;-67
2023/05/19 04:46:31;;;;;;;8.23;7.37;;;7.60;99.90;;;;;;4982026;28;20573;-68
2023/05/19 04:49:00;;;;;;;9.70;7.07;;;7.60;99.90;;;;;;4981716;28;21015;-68
2023/05/19 04:51:30;;;;;;;14.40;6.73;;;7.70;99.90;;;;;;4981777;28;21075;-68
2023/05/19 04:53:58;;;;;;;7.53;6.83;;;7.70;99.90;;;;;;4981348;28;20497;-67
2023/05/19 04:56:28;;;;;;;10.30;7.67;;;7.80;99.90;;;;;;4982646;28;20989;-69
2023/05/19 04:58:57;;;;;;;9.87;6.37;;;7.80;99.90;;;;;;4981090;28;20472;-68
2023/05/19 05:01:25;;;;;;;8.70;6.40;;;7.80;99.90;;;;;;4982104;28;20473;-68
2023/05/19 05:03:54;;;;;;;7.77;6.40;;;7.90;99.90;;;;;;4981328;28;20487;-68
2023/05/19 05:06:23;;;;;;;8.17;6.50;;;7.90;99.90;;;;;;4981693;28;20474;-67
2023/05/19 05:08:51;;;;;;;9.57;6.47;;;8.00;99.90;;;;;;4981937;28;20925;-68
2023/05/19 05:11:20;;;;;;;7.17;6.47;;;8.00;99.90;;;;;;4981455;28;20558;-67
2023/05/19 05:13:56;;;;;;;9.17;6.77;;;8.10;99.90;;;;;;4979582;28;20524;-67
2023/05/19 05:16:25;;;;;;;7.80;6.20;;;8.10;99.90;;;;;;4981585;28;20549;-67
2023/05/19 05:18:54;;;;;;;7.03;6.33;;;8.20;99.90;;;;;;4981595;28;20469;-67
2023/05/19 05:21:23;;;;;;;7.53;6.80;;;8.20;99.90;;;;;;4981595;28;20958;-70
2023/05/19 05:23:52;;;;;;;9.40;6.50;;;8.30;99.90;;;;;;4980278;28;20577;-68
2023/05/19 05:26:21;;;;;;;7.40;5.77;;;8.30;99.90;;;;;;4982066;28;20497;-68
2023/05/19 05:28:50;;;;;;;8.60;7.00;;;8.40;99.90;;;;;;4980706;28;20480;-67
2023/05/19 05:31:19;;;;;;;6.77;6.10;;;8.50;99.90;;;;;;4980381;28;20520;-68
2023/05/19 05:33:48;;;;;;;8.57;6.00;;;8.50;99.90;;;;;;4980219;28;20810;-68
2023/05/19 05:36:16;;;;;;;8.17;6.53;;;8.60;99.90;;;;;;4981392;28;20474;-68
2023/05/19 05:38:44;;;;;;;8.17;6.60;;;8.60;99.90;;;;;;4981526;28;20480;-67
2023/05/19 05:41:12;;;;;;;7.40;6.10;;;8.60;99.90;;;;;;4980610;28;20520;-68
2023/05/19 05:43:40;;;;;;;8.63;6.20;;;8.70;99.90;;;;;;4980001;28;20721;-68
2023/05/19 05:46:08;;;;;;;6.70;5.43;;;8.80;99.90;;;;;;4980992;28;20477;-69
2023/05/19 05:48:38;;;;;;;7.70;6.40;;;8.80;99.90;;;;;;4979853;28;20478;-68
2023/05/19 05:51:07;;;;;;;6.33;5.70;;;8.90;99.90;;;;;;4981610;28;20529;-69
2023/05/19 05:53:40;;;;;;;7.57;5.27;;;9.00;99.90;;;;;;4979576;28;20487;-69
2023/05/19 05:56:09;;;;;;;8.53;6.43;;;9.00;99.90;;;;;;4979452;28;20555;-67
2023/05/19 05:58:39;;;;;;;9.07;5.50;;;9.10;99.90;;;;;;4980722;28;20473;-67
2023/05/19 06:01:10;;;;;;;6.60;5.43;;;9.20;99.90;;;;;;4980103;28;20469;-70
2023/05/19 06:03:43;;;;;;;8.43;5.80;;;9.20;99.90;;;;;;4979199;28;20572;-68
2023/05/19 06:06:11;;;;;;;8.40;5.07;;;9.30;99.90;;;;;;4980335;28;21092;-68
2023/05/19 06:08:39;;;;;;;8.23;5.30;;;9.40;99.90;;;;;;4980360;28;20473;-68
2023/05/19 06:11:08;;;;;;;5.43;4.60;;;9.60;99.90;;;;;;4979607;28;20505;-68
2023/05/19 06:13:36;;;;;;;5.90;5.23;;;9.60;99.90;;;;;;4978970;28;20481;-68
2023/05/19 06:16:04;;;;;;;6.97;5.10;;;9.70;99.90;;;;;;4979585;28;20569;-68
2023/05/19 06:18:33;;;;;;;9.07;5.50;;;9.80;99.90;;;;;;4979495;28;20488;-68
2023/05/19 06:21:03;;;;;;;7.73;5.63;;;9.90;99.90;;;;;;4980635;28;20916;-68
2023/05/19 06:23:31;;;;;;;6.10;4.20;;;10.10;99.90;;;;;;4981627;28;20544;-68
2023/05/19 06:25:59;;;;;;;6.37;4.77;;;10.20;99.90;;;;;;4983844;28;20469;-68
2023/05/19 06:28:27;;;;;;;5.63;4.10;;;10.20;99.90;;;;;;4982370;28;20552;-68
2023/05/19 06:30:54;;;;;;;5.43;4.50;;;10.30;99.90;;;;;;4983521;28;20585;-68
2023/05/19 06:33:22;;;;;;;6.40;4.20;;;10.40;99.90;;;;;;4981539;28;20508;-68
2023/05/19 06:35:54;;;;;;;7.80;4.47;;;10.40;99.90;;;;;;4983385;28;20500;-68
2023/05/19 06:38:23;;;;;;;5.93;4.07;;;10.50;99.90;;;;;;4982447;28;20496;-68
2023/05/19 06:40:51;;;;;;;7.47;4.60;;;10.60;99.90;;;;;;4983305;28;20461;-68
2023/05/19 06:43:19;;;;;;;7.30;4.70;;;10.60;99.90;;;;;;4981796;28;20615;-68
2023/05/19 06:45:47;;;;;;;5.47;4.43;;;10.70;99.90;;;;;;4983280;28;20529;-68
2023/05/19 06:48:15;;;;;;;4.07;3.63;;;10.80;99.90;;;;;;4982357;28;21050;-68
2023/05/19 06:50:43;;;;;;;8.17;4.30;;;10.80;99.90;;;;;;4983374;28;20525;-68
2023/05/19 06:53:11;;;;;;;7.30;4.30;;;10.90;99.90;;;;;;4981864;28;21017;-68
2023/05/19 06:55:41;;;;;;;4.83;3.90;;;11.00;99.90;;;;;;4982998;28;20480;-68
2023/05/19 06:58:26;;;;;;;4.77;4.27;;;11.00;99.90;;;;;;4983068;28;20477;-68
2023/05/19 07:00:54;;;;;;;5.37;4.47;;;11.00;99.90;;;;;;4982264;28;20465;-68
2023/05/19 07:03:22;;;;;;;8.13;4.27;;;11.10;99.90;;;;;;4976911;28;20865;-68
2023/05/19 07:05:50;;;;;;;7.93;4.30;;;11.20;99.90;;;;;;4972708;28;20469;-68
2023/05/19 07:08:18;;;;;;;6.13;3.93;;;11.30;99.90;;;;;;4982185;28;20580;-68
2023/05/19 07:10:48;;;;;;;5.20;3.50;;;11.40;99.90;;;;;;4981200;28;20588;-68
2023/05/19 07:13:16;;;;;;;5.17;4.10;;;11.50;99.90;;;;;;4981417;28;20487;-68
2023/05/19 07:15:44;;;;;;;5.23;3.87;;;11.50;99.90;;;;;;4981925;28;20990;-68
2023/05/19 07:18:14;;;;;;;5.17;3.50;;;11.60;99.90;;;;;;4983323;28;20560;-68
2023/05/19 07:20:42;;;;;;;6.60;3.90;;;11.70;99.90;;;;;;4982394;28;20548;-68
2023/05/19 07:23:10;;;;;;;4.93;3.40;;;11.70;99.90;;;;;;4980327;28;20485;-68
2023/05/19 07:25:38;;;;;;;6.27;3.40;;;11.90;99.90;;;;;;4982420;28;20515;-69
2023/05/19 07:28:07;;;;;;;5.77;3.60;;;11.90;99.90;;;;;;4981841;28;20498;-68
2023/05/19 07:30:35;;;;;;;5.77;3.30;;;12.00;99.90;;;;;;4981834;28;20820;-67
2023/05/19 07:33:03;;;;;;;5.77;3.67;;;12.10;99.90;;;;;;4981137;28;20584;-67
2023/05/19 07:35:31;;;;;;;5.03;3.40;;;12.20;99.90;;;;;;4981719;28;21027;-68
2023/05/19 07:37:59;;;;;;;4.53;3.23;;;12.30;99.90;;;;;;4982809;28;21055;-67
2023/05/19 07:40:27;;;;;;;4.23;3.53;;;12.50;99.90;;;;;;4981703;28;20559;-68
2023/05/19 07:42:55;;;;;;;5.90;3.90;;;12.60;99.90;;;;;;4981019;28;21093;-67
2023/05/19 07:45:24;;;;;;;4.40;3.73;;;12.80;99.90;;;;;;4981756;28;20474;-67
2023/05/19 07:47:53;;;;;;;8.63;3.43;;;12.90;99.90;;;;;;4979226;28;21029;-67
2023/05/19 07:50:22;;;;;;;4.30;3.10;;;13.00;99.90;;;;;;4980395;28;20584;-67
2023/05/19 07:52:50;;;;;;;6.20;3.93;;;13.10;99.90;;;;;;4980502;28;21099;-68
2023/05/19 07:55:18;;;;;;;5.30;3.67;;;13.20;99.90;;;;;;4981327;28;20595;-68
2023/05/19 07:57:46;;;;;;;4.83;3.00;;;13.20;99.90;;;;;;4981608;28;20473;-68
2023/05/19 08:00:15;;;;;;;5.63;3.20;;;13.30;99.90;;;;;;4982047;28;20477;-68
2023/05/19 08:02:44;;;;;;;3.93;3.53;;;13.40;99.90;;;;;;4980324;28;20569;-68
2023/05/19 08:05:13;;;;;;;4.73;4.00;;;13.40;99.90;;;;;;4980063;28;20488;-67
2023/05/19 08:07:41;;;;;;;4.23;3.57;;;13.50;99.90;;;;;;4981682;28;20560;-67
2023/05/19 08:10:09;;;;;;;4.00;3.33;;;13.60;99.90;;;;;;4981543;28;20986;-67
2023/05/19 08:12:37;;;;;;;4.87;3.57;;;13.70;99.90;;;;;;4975306;28;21082;-68
2023/05/19 08:15:06;;;;;;;7.23;3.60;;;13.90;99.90;;;;;;4979687;28;20997;-67
2023/05/19 08:17:34;;;;;;;6.60;3.10;;;14.00;99.90;;;;;;4979750;28;20501;-67
2023/05/19 08:20:05;;;;;;;5.03;3.13;;;14.20;99.90;;;;;;4981080;28;20619;-68
2023/05/19 08:22:33;;;;;;;3.47;2.90;;;14.20;99.90;;;;;;4977872;28;21050;-67
2023/05/19 08:25:01;;;;;;;5.20;2.60;;;14.40;99.90;;;;;;4980883;28;20983;-67
2023/05/19 08:27:29;;;;;;;4.10;2.73;;;14.50;99.90;;;;;;4980123;28;20469;-67
2023/05/19 08:29:57;;;;;;;2.93;2.70;;;14.60;99.90;;;;;;4979370;28;20492;-67
2023/05/19 08:32:25;;;;;;;3.73;2.77;;;14.70;99.90;;;;;;4975337;28;20598;-67
2023/05/19 08:34:53;;;;;;;4.23;2.70;;;14.80;99.90;;;;;;4980608;28;21011;-67
2023/05/19 08:37:22;;;;;;;4.27;3.00;;;14.90;99.90;;;;;;4979063;28;20552;-67
2023/05/19 08:39:50;;;;;;;7.20;3.00;;;15.00;99.90;;;;;;4979492;28;20579;-67
2023/05/19 08:42:18;;;;;;;3.73;2.50;;;15.10;99.90;;;;;;4977481;28;20494;-67
2023/05/19 08:44:50;;;;;;;3.70;2.10;;;15.20;99.90;;;;;;4978638;28;20496;-67
2023/05/19 08:47:18;;;;;;;5.80;2.70;;;15.30;99.90;;;;;;4980463;28;20560;-67
2023/05/19 08:49:49;;;;;;;3.83;2.70;;;15.30;99.90;;;;;;4980188;28;20921;-67
2023/05/19 08:52:26;;;;;;;5.23;3.10;;;15.30;99.90;;;;;;4978871;28;20580;-67
2023/05/19 08:55:01;;;;;;;4.73;2.70;;;15.40;99.90;;;;;;4980283;28;20477;-67
2023/05/19 08:57:29;;;;;;;2.73;2.53;;;15.50;99.90;;;;;;4981561;28;20481;-67
2023/05/19 08:59:58;;;;;;;4.43;2.77;;;15.60;99.90;;;;;;4980858;28;20473;-67
2023/05/19 09:02:27;;;;;;;6.20;2.77;;;15.70;99.90;;;;;;4979144;28;20486;-67
2023/05/19 09:04:56;;;;;;;3.93;2.67;;;15.80;99.90;;;;;;4980497;28;20470;-67
2023/05/19 09:07:26;;;;;;;4.23;2.87;;;15.90;99.90;;;;;;4980006;28;20479;-68
2023/05/19 09:09:55;;;;;;;3.87;2.67;;;16.00;99.90;;;;;;4979477;28;20551;-67
2023/05/19 09:12:23;;;;;;;3.13;2.70;;;16.10;99.90;;;;;;4978857;28;20589;-67
2023/05/19 09:14:51;;;;;;;4.10;2.63;;;16.20;99.90;;;;;;4980054;28;20469;-67
2023/05/19 09:17:19;;;;;;;6.73;2.73;;;16.20;99.90;;;;;;4980872;28;20509;-68
2023/05/19 09:19:48;;;;;;;2.70;2.50;;;16.30;99.90;;;;;;4980965;28;20465;-67
2023/05/19 09:22:17;;;;;;;5.00;2.90;;;16.40;99.90;;;;;;4978925;28;20746;-67
2023/05/19 09:24:47;;;;;;;6.47;2.70;;;16.40;99.90;;;;;;4980599;28;20559;-67
2023/05/19 09:27:21;;;;;;;4.80;3.10;;;16.40;99.90;;;;;;4980907;28;21141;-67
2023/05/19 09:29:49;;;;;;;7.67;2.80;;;16.50;99.90;;;;;;4980092;28;20481;-67
2023/05/19 09:32:25;;;;;;;4.47;2.63;;;16.50;99.90;;;;;;4979342;28;20506;-67
2023/05/19 09:34:54;;;;;;;5.30;2.90;;;16.60;99.90;;;;;;4980240;28;20485;-67
2023/05/19 09:37:24;;;;;;;3.77;2.43;;;16.60;99.90;;;;;;4980687;28;21010;-67
2023/05/19 09:39:53;;;;;;;6.07;2.77;;;16.60;99.90;;;;;;4979873;28;20492;-67
2023/05/19 09:42:25;;;;;;;3.87;2.57;;;16.70;99.90;;;;;;4978102;28;20490;-67
2023/05/19 09:45:00;;;;;;;4.03;2.63;;;16.70;99.90;;;;;;4980538;28;20985;-67
2023/05/19 09:47:32;;;;;;;5.70;3.00;;;16.70;99.90;;;;;;4980603;28;20465;-67
2023/05/19 09:50:00;;;;;;;5.67;3.10;;;16.80;99.90;;;;;;4980095;28;20484;-67
2023/05/19 09:52:28;;;;;;;5.07;3.03;;;16.90;99.90;;;;;;4978160;28;20556;-67
2023/05/19 09:54:59;;;;;;;7.73;3.60;;;17.00;99.90;;;;;;4979865;28;20560;-67
2023/05/19 09:57:27;;;;;;;4.47;2.60;;;17.10;99.90;;;;;;4980894;28;20511;-67
2023/05/19 09:59:56;;;;;;;2.70;2.50;;;17.10;99.90;;;;;;4983872;28;20496;-67
2023/05/19 10:02:26;;;;;;;3.83;2.50;;;17.10;99.90;;;;;;4982586;28;20488;-67
2023/05/19 10:04:55;;;;;;;5.07;2.60;;;17.10;99.90;;;;;;4980844;28;20473;-67
2023/05/19 10:07:24;;;;;;;4.60;2.70;;;17.20;99.90;;;;;;4983634;28;20481;-67
2023/05/19 10:09:54;;;;;;;3.63;2.70;;;17.30;99.90;;;;;;4983776;28;20475;-67
2023/05/19 10:12:26;;;;;;;5.77;2.87;;;17.30;99.90;;;;;;4981836;28;20604;-68
2023/05/19 10:14:55;;;;;;;4.83;2.80;;;17.30;99.90;;;;;;4983034;28;21501;-67
2023/05/19 10:17:25;;;;;;;4.73;3.00;;;17.20;99.90;;;;;;4983027;28;20497;-67
2023/05/19 10:19:54;;;;;;;4.50;2.97;;;17.20;99.90;;;;;;4983534;28;20474;-67
2023/05/19 10:22:22;;;;;;;4.77;2.77;;;17.30;99.90;;;;;;4982549;28;20927;-67
2023/05/19 10:24:50;;;;;;;3.03;2.27;;;17.40;99.90;;;;;;4982542;28;20529;-67
2023/05/19 10:27:19;;;;;;;4.27;2.77;;;17.50;99.90;;;;;;4983418;28;20909;-67
2023/05/19 10:29:51;;;;;;;4.23;2.43;;;17.50;99.90;;;;;;4982717;28;20551;-68
2023/05/19 10:32:26;;;;;;;3.93;2.60;;;17.60;99.90;;;;;;4981483;28;20592;-67
2023/05/19 10:35:20;;;;;;;3.80;2.40;;;17.60;99.90;;;;;;4983397;28;20473;-67
2023/05/19 10:37:57;;;;;;;3.83;2.40;;;17.70;99.90;;;;;;4981799;28;20474;-67
2023/05/19 10:40:28;;;;;;;5.67;2.63;;;17.80;99.90;;;;;;4981344;28;20465;-67
2023/05/19 10:43:13;;;;;;;3.77;2.40;;;17.90;99.90;;;;;;4981561;28;20559;-67
2023/05/19 10:45:47;;;;;;;5.03;2.43;;;18.00;99.90;;;;;;4982400;28;20986;-67
2023/05/19 10:48:16;;;;;;;4.20;2.83;;;18.10;99.90;;;;;;4978411;28;20538;-67
2023/05/19 10:50:45;;;;;;;3.53;2.57;;;18.10;99.90;;;;;;4982693;28;20470;-67
2023/05/19 10:53:18;;;;;;;6.13;2.70;;;18.10;99.90;;;;;;4981092;28;20481;-67
2023/05/19 10:55:47;;;;;;;2.83;2.57;;;18.20;99.90;;;;;;4981938;28;20493;-67
2023/05/19 10:58:15;;;;;;;4.10;2.40;;;18.30;99.90;;;;;;4982004;28;20560;-67
2023/05/19 11:00:45;;;;;;;3.50;2.10;;;18.50;99.90;;;;;;4982547;28;20473;-67
2023/05/19 11:03:14;;;;;;;4.20;2.40;;;18.60;99.90;;;;;;4981696;28;20485;-67
2023/05/19 11:05:44;;;;;;;6.07;2.70;;;18.60;99.90;;;;;;4981537;28;20580;-67
2023/05/19 11:08:12;;;;;;;4.30;2.87;;;18.70;99.90;;;;;;4981188;28;20877;-67
2023/05/19 11:10:44;;;;;;;3.80;2.23;;;18.80;99.90;;;;;;4981762;28;20477;-67
2023/05/19 11:13:21;;;;;;;4.23;2.80;;;19.00;99.90;;;;;;4981374;28;20485;-68
2023/05/19 11:15:52;;;;;;;3.43;2.00;;;19.10;99.90;;;;;;4981758;28;20476;-67
2023/05/19 11:18:20;;;;;;;6.03;2.80;;;19.10;99.90;;;;;;4981519;28;20501;-67
2023/05/19 11:20:57;;;;;;;4.90;2.93;;;19.30;99.90;;;;;;4982422;28;20489;-67
2023/05/19 11:23:26;;;;;;;4.50;2.60;;;19.40;99.90;;;;;;4981258;28;20490;-67
2023/05/19 11:25:54;;;;;;;3.60;2.30;;;19.40;99.60;;;;;;4982538;28;20989;-67
2023/05/19 11:28:24;;;;;;;4.07;3.20;;;19.40;99.90;;;;;;4980748;28;20543;-68
2023/05/19 11:30:56;;;;;;;4.37;2.40;;;19.40;99.80;;;;;;4982587;28;20474;-68
2023/05/19 11:33:26;;;;;;;6.90;2.47;;;19.50;99.90;;;;;;4980873;28;20477;-68
2023/05/19 11:35:57;;;;;;;4.00;2.27;;;19.70;95.80;;;;;;4981652;28;20470;-68
2023/05/19 11:38:26;;;;;;;3.93;2.43;;;19.70;87.80;;;;;;4982320;28;20470;-67
2023/05/19 11:40:56;;;;;;;5.37;2.73;;;19.80;98.00;;;;;;4981498;28;20469;-67
2023/05/19 11:43:24;;;;;;;4.03;2.60;;;19.90;99.30;;;;;;4981089;28;20517;-67
2023/05/19 11:45:54;;;;;;;4.13;2.63;;;20.10;99.90;;;;;;4982238;28;20513;-68
2023/05/19 11:48:24;;;;;;;4.37;2.60;;;20.20;98.50;;;;;;4981097;28;20501;-67
2023/05/19 11:50:52;;;;;;;2.17;2.00;;;20.30;96.40;;;;;;4981573;28;20465;-67
2023/05/19 11:53:20;;;;;;;2.13;1.90;;;20.40;94.10;;;;;;4981154;28;21006;-68
2023/05/19 11:55:48;;;;;;;3.03;2.20;;;20.50;83.60;;;;;;4981095;28;20569;-68
2023/05/19 11:58:17;;;;;;;2.60;2.20;;;20.50;75.10;;;;;;4980310;28;20976;-67
2023/05/19 12:00:46;;;;;;;3.10;1.80;;;20.50;75.90;;;;;;4981871;28;20539;-67
2023/05/19 12:03:21;;;;;;;5.60;2.20;;;20.50;78.80;;;;;;4981742;28;20568;-68
2023/05/19 12:05:49;;;;;;;7.20;2.60;;;20.50;77.50;;;;;;4982876;28;21143;-67
2023/05/19 12:08:18;;;;;;;2.30;2.10;;;20.50;82.10;;;;;;4980645;28;20470;-67
2023/05/19 12:10:48;;;;;;;2.30;1.83;;;20.40;81.00;;;;;;4981676;28;20967;-68
2023/05/19 12:13:17;;;;;;;2.40;1.90;;;20.30;77.80;;;;;;4981080;28;20522;-68
2023/05/19 12:15:45;;;;;;;3.03;2.00;;;20.10;76.90;;;;;;4981567;28;20464;-67
2023/05/19 12:18:13;;;;;;;3.40;2.00;;;20.10;87.40;;;;;;4976182;28;20531;-68
2023/05/19 12:20:43;;;;;;;3.27;2.30;;;20.30;88.00;;;;;;4980104;28;20470;-68
2023/05/19 12:23:12;;;;;;;3.80;2.43;;;20.40;78.50;;;;;;4979850;28;20492;-68
2023/05/19 12:25:40;;;;;;;3.60;2.30;;;20.50;91.90;;;;;;4979998;28;20882;-68
2023/05/19 12:28:08;;;;;;;3.80;2.17;;;20.70;90.50;;;;;;4979409;28;21290;-68
2023/05/19 12:30:36;;;;;;;3.17;2.00;;;20.90;82.20;;;;;;4980535;28;20982;-68
2023/05/19 12:33:05;;;;;;;3.47;2.07;;;21.10;77.00;;;;;;4979703;28;20485;-68
2023/05/19 12:35:33;;;;;;;3.40;2.07;;;21.30;78.10;;;;;;4977556;28;20481;-67
2023/05/19 12:38:06;;;;;;;3.70;2.77;;;21.50;67.60;;;;;;4979987;28;20474;-68
2023/05/19 12:40:35;;;;;;;3.10;1.80;;;21.50;67.20;;;;;;4980001;28;20508;-68
2023/05/19 12:43:05;;;;;;;4.40;2.30;;;21.40;65.80;;;;;;4978617;28;21253;-68
2023/05/19 12:45:34;;;;;;;2.60;1.93;;;21.40;69.30;;;;;;4980070;28;20556;-68
2023/05/19 12:48:04;;;;;;;2.70;2.03;;;21.50;66.30;;;;;;4980284;28;20483;-67
2023/05/19 12:50:33;;;;;;;2.30;2.10;;;21.50;55.80;;;;;;4980490;28;20561;-68
2023/05/19 12:53:02;;;;;;;3.10;2.37;;;21.40;57.00;;;;;;4979731;28;20528;-68
2023/05/19 12:55:38;;;;;;;4.27;1.97;;;21.30;61.10;;;;;;4980551;28;20469;-68
2023/05/19 12:58:07;;;;;;;2.47;2.23;;;21.40;60.40;;;;;;4980522;28;20530;-68
2023/05/19 13:00:40;;;;;;;3.47;2.40;;;21.50;60.00;;;;;;4980153;28;20472;-68
2023/05/19 13:03:15;;;;;;;2.07;1.90;;;21.40;62.20;;;;;;4979788;28;20489;-68